Heydar Aliyev — 9HFS7 — position and weather

sailwx.info

Track history (hours):
 
Tides and Currents Weather Stations Pressure Air Temp Water Temp Dewpoint Dewpoint Depression Visibility Wind Speed Wind Dir Waves Ship Positions

Heydar Aliyev

Last reported at 2017-May-13 21:49 UTC. Time now 2017-Jun-22 14:10 UTC.
Position N 01°14' E 104°01'.
Warning: this ship's position is 39 days out of date.

Length 274 m; draft 16.6 m.

Type: Tanker. MMSI: 215213000.

Date/timePositionNaut miles runAvg speedWind from/ knotsBaromVisibWave heightAir tempDewpointWater temp
2017-May-13 21:49N 01°14' E 104°01'412.6
2017-May-13 21:29N 01°14' E 103°57'611.5
2017-May-13 21:00N 01°12' E 103°52'611.5
2017-May-13 20:30N 01°09' E 103°47'612.2
2017-May-13 19:59N 01°05' E 103°42'5 9.9
2017-May-13 19:30N 01°04' E 103°37'510.2
2017-May-13 19:00N 01°07' E 103°33'4 8.5
2017-May-13 18:30N 01°11' E 103°35'4 7.7
2017-May-13 18:00N 01°12' E 103°39'3 6.2
2017-May-13 17:30N 01°13' E 103°41'3 5.9
2017-May-13 17:00N 01°15' E 103°44'1 2.5
2017-May-13 16:30N 01°14' E 103°45'0 0.1
2017-May-13 16:00N 01°14' E 103°45'0 0.0
2017-May-13 15:17N 01°14' E 103°45'0 0.0
2017-May-13 14:56N 01°14' E 103°45'0 0.0
2017-May-13 14:14N 01°14' E 103°45'0 0.0
2017-May-13 13:29N 01°14' E 103°45'0 0.0
2017-May-13 12:53N 01°14' E 103°45'0 0.0
2017-May-13 12:26N 01°14' E 103°45'0 0.0
2017-May-13 11:53N 01°14' E 103°45'0 0.0
2017-May-13 11:29N 01°14' E 103°45'0 0.0
2017-May-13 10:53N 01°14' E 103°45'0 0.0
2017-May-13 10:29N 01°14' E 103°45'0 0.0
2017-May-13 09:59N 01°14' E 103°45'0 0.0
2017-May-13 09:23N 01°14' E 103°45'0 0.0
2017-May-13 08:05N 01°14' E 103°45'0 0.0
2017-May-13 07:53N 01°14' E 103°45'0 0.0
2017-May-13 07:29N 01°14' E 103°45'0 0.0
2017-May-13 06:56N 01°14' E 103°45'0 0.0
2017-May-13 06:11N 01°14' E 103°45'0 0.0
2017-May-13 05:59N 01°14' E 103°45'0 0.0
2017-May-13 05:29N 01°14' E 103°45'0 0.0
2017-May-13 04:41N 01°14' E 103°45'0 0.0
2017-May-13 04:29N 01°14' E 103°45'0 0.0
2017-May-13 03:53N 01°14' E 103°45'0 0.0
2017-May-13 02:56N 01°14' E 103°45'0 0.0
2017-May-13 02:11N 01°14' E 103°45'0 0.0
2017-May-13 01:56N 01°14' E 103°45'0 0.0
2017-May-13 01:26N 01°14' E 103°45'0 0.0
2017-May-13 00:50N 01°14' E 103°45'0 0.0
2017-May-13 00:29N 01°14' E 103°45'0 0.0
2017-May-12 23:47N 01°14' E 103°45'0 0.0
2017-May-12 23:23N 01°14' E 103°45'0 0.0
2017-May-12 22:59N 01°14' E 103°45'0 0.0
2017-May-12 22:17N 01°14' E 103°45'0 0.0
2017-May-12 21:53N 01°14' E 103°45'0 0.0
2017-May-12 21:29N 01°14' E 103°45'0 0.0
2017-May-12 20:50N 01°14' E 103°45'0 0.0
2017-May-12 20:29N 01°14' E 103°45'0 0.0
2017-May-12 19:53N 01°14' E 103°45'0 0.0
2017-May-12 19:29N 01°14' E 103°45'0 0.0
2017-May-12 18:53N 01°14' E 103°45'0 0.0
2017-May-12 18:29N 01°14' E 103°45'0 0.0
2017-May-12 17:53N 01°14' E 103°45'0 0.0
2017-May-12 17:29N 01°14' E 103°45'0 0.0
2017-May-12 16:56N 01°14' E 103°45'0 0.0
2017-May-12 16:29N 01°14' E 103°45'0 0.0
2017-May-12 15:56N 01°14' E 103°45'0 0.0
2017-May-12 15:20N 01°14' E 103°45'0 0.0
2017-May-12 14:56N 01°14' E 103°45'0 0.0
2017-May-12 14:29N 01°14' E 103°45'0 0.0
2017-May-12 13:29N 01°14' E 103°45'0 0.0
2017-May-12 12:53N 01°14' E 103°45'0 0.0
2017-May-12 12:29N 01°14' E 103°45'0 0.0
2017-May-12 11:50N 01°14' E 103°45'0 0.0
2017-May-12 11:26N 01°14' E 103°45'0 0.0
2017-May-12 10:56N 01°14' E 103°45'0 0.0
2017-May-12 10:29N 01°14' E 103°45'0 0.0
2017-May-12 09:53N 01°14' E 103°45'0 0.0
2017-May-12 09:23N 01°14' E 103°45'0 0.0
2017-May-12 08:56N 01°14' E 103°45'0 0.0
2017-May-12 08:26N 01°14' E 103°45'0 0.0
2017-May-12 07:56N 01°14' E 103°45'0 0.0
2017-May-12 07:23N 01°14' E 103°45'0 0.0
2017-May-12 06:56N 01°14' E 103°45'0 0.0
2017-May-12 06:29N 01°14' E 103°45'0 0.0
2017-May-12 05:56N 01°14' E 103°45'0 0.0
2017-May-12 05:23N 01°14' E 103°45'0 0.0
2017-May-12 04:59N 01°14' E 103°45'0 0.0
2017-May-12 04:29N 01°14' E 103°45'0 0.0
2017-May-12 03:56N 01°14' E 103°45'0 0.0
2017-May-12 03:23N 01°14' E 103°45'0 0.0
2017-May-12 02:59N 01°14' E 103°45'0 0.0
2017-May-12 02:29N 01°14' E 103°45'0 0.0
2017-May-12 01:56N 01°14' E 103°45'0 0.0
2017-May-12 01:29N 01°14' E 103°45'0 0.0
2017-May-12 00:53N 01°14' E 103°45'0 0.0
2017-May-12 00:29N 01°14' E 103°45'0 0.0
2017-May-11 23:56N 01°14' E 103°45'0 0.0
2017-May-11 23:29N 01°14' E 103°45'0 0.0
2017-May-11 22:53N 01°14' E 103°45'0 0.0
2017-May-11 22:29N 01°14' E 103°45'0 0.0
2017-May-11 21:56N 01°14' E 103°45'0 0.0
2017-May-11 21:26N 01°14' E 103°45'0 0.0
2017-May-11 20:59N 01°14' E 103°45'0 0.0
2017-May-11 20:29N 01°14' E 103°45'0 0.0
2017-May-11 19:56N 01°14' E 103°45'0 0.0
2017-May-11 19:26N 01°14' E 103°45'0 0.0
2017-May-11 18:56N 01°14' E 103°45'0 0.0
2017-May-11 18:29N 01°14' E 103°45'0 0.0
2017-May-11 17:56N 01°14' E 103°45'0 0.0
2017-May-11 17:29N 01°14' E 103°45'0 0.0
2017-May-11 16:59N 01°14' E 103°45'0 0.0
2017-May-11 16:29N 01°14' E 103°45'0 0.0
2017-May-11 15:59N 01°14' E 103°45'0 0.0
2017-May-11 15:29N 01°14' E 103°45'0 0.0
2017-May-11 14:59N 01°14' E 103°45'0 0.0
2017-May-11 14:29N 01°14' E 103°45'0 0.0
2017-May-11 13:29N 01°14' E 103°45'0 0.0
2017-May-11 12:59N 01°14' E 103°45'0 0.0
2017-May-11 12:29N 01°14' E 103°45'0 0.0
2017-May-11 11:59N 01°14' E 103°45'0 0.0
2017-May-11 11:26N 01°14' E 103°45'0 0.0
2017-May-11 10:56N 01°14' E 103°45'0 0.0
2017-May-11 10:26N 01°14' E 103°45'0 0.0
2017-May-11 09:56N 01°14' E 103°45'0 0.0
2017-May-11 09:29N 01°14' E 103°45'0 0.0
2017-May-11 08:56N 01°14' E 103°45'0 0.0
2017-May-11 08:29N 01°14' E 103°45'0 0.0
2017-May-11 07:56N 01°14' E 103°45'0 0.0
2017-May-11 07:29N 01°14' E 103°45'0 0.0
2017-May-11 06:59N 01°14' E 103°45'0 0.0
2017-May-11 06:29N 01°14' E 103°45'0 0.0
2017-May-11 05:56N 01°14' E 103°45'0 0.0
2017-May-11 05:26N 01°14' E 103°45'0 0.0
2017-May-11 04:53N 01°14' E 103°45'0 0.0
2017-May-11 04:29N 01°14' E 103°45'0 0.0
2017-May-11 03:56N 01°14' E 103°45'0 0.0
2017-May-11 03:29N 01°14' E 103°45'0 0.0
2017-May-11 02:59N 01°14' E 103°45'0 0.0
2017-May-11 02:17N 01°14' E 103°45'0 0.0
2017-May-11 01:59N 01°14' E 103°45'0 0.0
2017-May-11 01:29N 01°14' E 103°45'0 0.0
2017-May-11 00:56N 01°14' E 103°45'0 0.0
2017-May-11 00:29N 01°14' E 103°45'0 0.0
2017-May-10 23:59N 01°14' E 103°45'0 0.0
2017-May-10 23:29N 01°14' E 103°45'0 0.0
2017-May-10 22:59N 01°14' E 103°45'0 0.0
2017-May-10 22:29N 01°14' E 103°45'0 0.0
2017-May-10 21:59N 01°14' E 103°45'0 0.0
2017-May-10 21:29N 01°14' E 103°45'0 0.0
2017-May-10 20:59N 01°14' E 103°45'0 0.0
2017-May-10 20:23N 01°14' E 103°45'0 0.0
2017-May-10 19:59N 01°14' E 103°45'0 0.0
2017-May-10 19:29N 01°14' E 103°45'0 0.0
2017-May-10 18:59N 01°14' E 103°45'0 0.0
2017-May-10 18:29N 01°14' E 103°45'0 0.0
2017-May-10 17:59N 01°14' E 103°45'0 0.0
2017-May-10 17:29N 01°14' E 103°45'0 0.0
2017-May-10 16:59N 01°14' E 103°45'0 0.0
2017-May-10 16:23N 01°14' E 103°45'0 0.0
2017-May-10 15:56N 01°14' E 103°45'0 0.0
2017-May-10 15:29N 01°14' E 103°45'0 0.0
2017-May-10 14:59N 01°14' E 103°45'0 0.0
2017-May-10 13:56N 01°14' E 103°45'0 0.0
2017-May-10 13:29N 01°14' E 103°45'0 0.0
2017-May-10 10:29N 01°14' E 103°45'0 0.0
2017-May-10 09:56N 01°14' E 103°45'0 0.0
2017-May-10 09:29N 01°14' E 103°45'0 0.0
2017-May-10 08:53N 01°14' E 103°45'0 0.0
2017-May-10 08:29N 01°14' E 103°45'0 0.0
2017-May-10 07:59N 01°14' E 103°45'0 0.0
2017-May-10 07:29N 01°14' E 103°45'0 0.0
2017-May-10 06:59N 01°14' E 103°45'0 0.0
2017-May-10 06:29N 01°14' E 103°45'0 0.0
2017-May-10 05:56N 01°14' E 103°45'0 0.0
2017-May-10 05:29N 01°14' E 103°45'0 0.0
2017-May-10 04:26N 01°14' E 103°45'0 0.0
2017-May-10 03:59N 01°14' E 103°45'0 0.0
2017-May-10 03:26N 01°14' E 103°45'0 0.0
2017-May-10 02:56N 01°14' E 103°45'0 0.0
2017-May-10 02:29N 01°14' E 103°45'0 0.0
2017-May-10 01:44N 01°14' E 103°45'0 0.0
2017-May-10 01:14N 01°14' E 103°45'0 0.0
2017-May-09 19:50N 01°14' E 103°45'0 0.0
2017-May-09 19:23N 01°14' E 103°45'0 0.0
2017-May-09 18:56N 01°14' E 103°45'0 0.0
2017-May-09 18:23N 01°14' E 103°45'0 0.0
2017-May-09 17:56N 01°14' E 103°45'0 0.0
2017-May-09 17:29N 01°14' E 103°45'0 0.0
2017-May-09 16:59N 01°14' E 103°45'0 0.0
2017-May-09 16:23N 01°14' E 103°45'0 0.0
2017-May-09 15:47N 01°14' E 103°45'0 0.0
2017-May-09 15:29N 01°14' E 103°45'0 0.0
2017-May-09 14:59N 01°14' E 103°45'0 0.0
2017-May-09 12:53N 01°14' E 103°45'0 0.0
2017-May-09 12:26N 01°14' E 103°45'0 0.0
2017-May-09 11:50N 01°14' E 103°45'0 0.0
2017-May-09 11:23N 01°14' E 103°45'0 0.0
2017-May-09 10:23N 01°14' E 103°45'0 0.0
2017-May-09 07:41N 01°14' E 103°45'0 0.0
2017-May-09 06:35N 01°14' E 103°45'0 0.0
2017-May-09 06:30N 01°14' E 103°45'1 1.0
2017-May-09 06:00N 01°15' E 103°45'2 4.7
2017-May-09 05:30N 01°14' E 103°48'4 8.5
2017-May-09 05:00N 01°13' E 103°52'4 8.9
2017-May-09 04:30N 01°16' E 103°55'0 0.5
2017-May-09 03:46N 01°16' E 103°55'0 0.1
2017-May-09 03:25N 01°16' E 103°55'0 0.2
2017-May-09 02:58N 01°16' E 103°55'0 0.1
2017-May-09 02:22N 01°16' E 103°55'0 0.2
2017-May-09 01:58N 01°16' E 103°55'0 0.1
2017-May-09 01:25N 01°16' E 103°55'0 0.1
2017-May-09 00:55N 01°16' E 103°55'0 0.0
2017-May-09 00:28N 01°16' E 103°55'0 0.2
2017-May-08 23:58N 01°16' E 103°55'0 0.1
2017-May-08 23:28N 01°16' E 103°55'0 0.0
2017-May-08 22:55N 01°16' E 103°55'0 0.1
2017-May-08 22:28N 01°16' E 103°55'0 0.2
2017-May-08 21:52N 01°16' E 103°55'0 0.0
2017-May-08 21:28N 01°16' E 103°55'0 0.1
2017-May-08 20:58N 01°16' E 103°55'0 0.0
2017-May-08 20:28N 01°16' E 103°55'0 0.0
2017-May-08 19:55N 01°16' E 103°55'0 0.0
2017-May-08 19:28N 01°16' E 103°55'0 0.0
2017-May-08 18:58N 01°16' E 103°55'0 0.0
2017-May-08 18:28N 01°16' E 103°55'0 0.0
2017-May-08 17:58N 01°16' E 103°55'0 0.0
2017-May-08 17:25N 01°16' E 103°55'0 0.1
2017-May-08 16:58N 01°16' E 103°55'0 0.0
2017-May-08 16:28N 01°16' E 103°55'0 0.0
2017-May-08 15:52N 01°16' E 103°55'0 0.1
2017-May-08 15:19N 01°16' E 103°55'0 0.1
2017-May-08 14:43N 01°16' E 103°55'0 0.0
2017-May-08 14:28N 01°16' E 103°55'0 0.1
2017-May-08 13:28N 01°16' E 103°55'0 0.1
2017-May-08 12:58N 01°16' E 103°55'0 0.1
2017-May-08 12:25N 01°16' E 103°55'0 0.0
2017-May-08 11:58N 01°16' E 103°55'0 0.0
2017-May-08 11:25N 01°16' E 103°55'0 0.2
2017-May-08 10:58N 01°16' E 103°55'0 0.1
2017-May-08 10:28N 01°16' E 103°55'0 0.2
2017-May-08 09:58N 01°16' E 103°55'0 0.0
2017-May-08 09:28N 01°16' E 103°55'0 0.1
2017-May-08 08:58N 01°16' E 103°55'0 0.0
2017-May-08 08:25N 01°16' E 103°55'0 0.0
2017-May-08 07:58N 01°16' E 103°55'0 0.0
2017-May-08 07:25N 01°16' E 103°55'0 0.1
2017-May-08 06:58N 01°16' E 103°55'0 0.0
2017-May-08 06:19N 01°16' E 103°55'0 0.0
2017-May-08 05:58N 01°16' E 103°55'0 0.0
2017-May-08 05:28N 01°16' E 103°55'0 0.0
2017-May-08 04:58N 01°16' E 103°55'0 0.0
2017-May-08 04:28N 01°16' E 103°55'0 0.0
2017-May-08 03:52N 01°16' E 103°55'0 0.0
2017-May-08 03:25N 01°16' E 103°55'0 0.0
2017-May-08 02:58N 01°16' E 103°55'0 0.1
2017-May-08 02:28N 01°16' E 103°55'0 0.1
2017-May-08 01:55N 01°16' E 103°55'0 0.0
2017-May-08 01:25N 01°16' E 103°55'0 0.1
2017-May-08 00:55N 01°16' E 103°55'0 0.3
2017-May-08 00:28N 01°16' E 103°55'0 0.1
2017-May-07 23:58N 01°16' E 103°55'0 0.0
2017-May-07 23:28N 01°16' E 103°55'0 0.0
2017-May-07 22:58N 01°16' E 103°55'0 0.3
2017-May-07 22:25N 01°16' E 103°55'0 0.2
2017-May-07 21:52N 01°16' E 103°55'0 0.0
2017-May-07 21:25N 01°16' E 103°55'0 0.0
2017-May-07 20:55N 01°16' E 103°55'0 0.0
2017-May-07 20:22N 01°16' E 103°55'0 0.0
2017-May-07 19:55N 01°16' E 103°55'0 0.0
2017-May-07 19:25N 01°16' E 103°55'0 0.0
2017-May-07 18:58N 01°16' E 103°55'0 0.0
2017-May-07 18:10N 01°16' E 103°55'0 0.0
2017-May-07 17:55N 01°16' E 103°55'0 0.0
2017-May-07 17:13N 01°16' E 103°55'0 0.0
2017-May-07 16:55N 01°16' E 103°55'0 0.1
2017-May-07 16:28N 01°16' E 103°55'0 0.1
2017-May-07 15:58N 01°16' E 103°55'0 0.1
2017-May-07 15:16N 01°16' E 103°55'0 0.1
2017-May-07 14:19N 01°16' E 103°55'0 0.1
2017-May-07 13:25N 01°16' E 103°55'0 0.1
2017-May-07 12:58N 01°16' E 103°55'0 0.0
2017-May-07 12:25N 01°16' E 103°55'0 0.0
2017-May-07 11:52N 01°16' E 103°55'0 0.1
2017-May-07 11:22N 01°16' E 103°55'0 0.1
2017-May-07 10:58N 01°16' E 103°55'0 0.2
2017-May-07 10:25N 01°16' E 103°55'0 0.0
2017-May-07 09:58N 01°16' E 103°55'0 0.1
2017-May-07 09:28N 01°16' E 103°55'0 0.1
2017-May-07 08:58N 01°16' E 103°55'0 0.1
2017-May-07 08:28N 01°16' E 103°55'0 0.1
2017-May-07 07:58N 01°16' E 103°55'0 0.0
2017-May-07 07:28N 01°16' E 103°55'0 0.0
2017-May-07 06:58N 01°16' E 103°55'0 0.0
2017-May-07 06:28N 01°16' E 103°55'0 0.0
2017-May-07 05:58N 01°16' E 103°55'0 0.0
2017-May-07 05:25N 01°16' E 103°55'0 0.0
2017-May-07 04:55N 01°16' E 103°55'0 0.0
2017-May-07 04:25N 01°16' E 103°55'0 0.0
2017-May-07 03:58N 01°16' E 103°55'0 0.0
2017-May-07 03:25N 01°16' E 103°55'0 0.0
2017-May-07 02:58N 01°16' E 103°55'0 0.3
2017-May-07 02:28N 01°16' E 103°55'0 0.3
2017-May-07 01:58N 01°16' E 103°55'0 0.1
2017-May-07 01:28N 01°16' E 103°55'0 0.1
2017-May-07 00:55N 01°16' E 103°55'0 0.0
2017-May-07 00:19N 01°16' E 103°55'0 0.1
2017-May-06 23:46N 01°16' E 103°55'0 0.1
2017-May-06 22:43N 01°16' E 103°55'0 0.0
2017-May-06 22:28N 01°16' E 103°55'0 0.0
2017-May-06 21:52N 01°16' E 103°55'0 0.3
2017-May-06 21:28N 01°16' E 103°55'0 0.3
2017-May-06 20:58N 01°16' E 103°55'0 0.1
2017-May-06 20:28N 01°16' E 103°55'0 0.0
2017-May-06 19:58N 01°16' E 103°55'0 0.0
2017-May-06 19:28N 01°16' E 103°55'0 0.0
2017-May-06 18:55N 01°16' E 103°55'0 0.0
2017-May-06 18:28N 01°16' E 103°55'0 0.1
2017-May-06 17:58N 01°16' E 103°55'0 0.1
2017-May-06 16:46N 01°16' E 103°55'0 0.2
2017-May-06 16:28N 01°16' E 103°55'0 0.1
2017-May-06 15:58N 01°16' E 103°55'0 0.1
2017-May-06 15:28N 01°16' E 103°55'0 0.0
2017-May-06 14:52N 01°16' E 103°55'0 0.0
2017-May-06 14:28N 01°16' E 103°55'0 0.0
2017-May-06 13:28N 01°16' E 103°55'0 0.0
2017-May-06 12:58N 01°16' E 103°55'0 0.0
2017-May-06 12:28N 01°16' E 103°55'0 0.0
2017-May-06 11:58N 01°16' E 103°55'0 0.1
2017-May-06 11:28N 01°16' E 103°55'0 0.2
2017-May-06 10:58N 01°16' E 103°55'0 0.1
2017-May-06 10:28N 01°16' E 103°55'0 0.0
2017-May-06 09:58N 01°16' E 103°55'0 0.0
2017-May-06 09:22N 01°16' E 103°55'0 0.0
2017-May-06 08:58N 01°16' E 103°55'0 0.0
2017-May-06 08:28N 01°16' E 103°55'0 0.1
2017-May-06 07:58N 01°16' E 103°55'0 0.0
2017-May-06 07:13N 01°16' E 103°55'0 0.0
2017-May-06 06:58N 01°16' E 103°55'0 0.0
2017-May-06 06:28N 01°16' E 103°55'0 0.1
2017-May-06 05:58N 01°16' E 103°55'0 0.0
2017-May-06 05:22N 01°16' E 103°55'0 0.0
2017-May-06 04:58N 01°16' E 103°55'0 0.0
2017-May-06 04:25N 01°16' E 103°55'0 0.0
2017-May-06 03:58N 01°16' E 103°55'0 0.1
2017-May-06 03:28N 01°16' E 103°55'0 0.1
2017-May-06 02:58N 01°16' E 103°55'0 0.0
2017-May-06 02:28N 01°16' E 103°55'0 0.0
2017-May-06 01:58N 01°16' E 103°55'0 0.1
2017-May-06 01:28N 01°16' E 103°55'0 0.1
2017-May-06 00:58N 01°16' E 103°55'0 0.0
2017-May-06 00:25N 01°16' E 103°55'0 0.4
2017-May-05 23:52N 01°16' E 103°55'0 0.3
2017-May-05 23:25N 01°16' E 103°55'0 0.1
2017-May-05 22:55N 01°16' E 103°55'0 0.1
2017-May-05 22:19N 01°16' E 103°55'0 0.1
2017-May-05 21:58N 01°16' E 103°55'0 0.0
2017-May-05 21:28N 01°16' E 103°55'0 0.0
2017-May-05 20:58N 01°16' E 103°55'0 0.0
2017-May-05 20:22N 01°16' E 103°55'0 0.0
2017-May-05 19:52N 01°16' E 103°55'0 0.0
2017-May-05 19:28N 01°16' E 103°55'0 0.1
2017-May-05 18:58N 01°16' E 103°55'0 0.1
2017-May-05 18:28N 01°16' E 103°55'0 0.0
2017-May-05 17:58N 01°16' E 103°55'0 0.1
2017-May-05 17:28N 01°16' E 103°55'0 0.0
2017-May-05 16:52N 01°16' E 103°55'0 0.0
2017-May-05 16:28N 01°16' E 103°55'0 0.0
2017-May-05 15:58N 01°16' E 103°55'0 0.0
2017-May-05 15:19N 01°16' E 103°55'0 0.0
2017-May-05 14:58N 01°16' E 103°55'0 0.1
2017-May-05 14:28N 01°16' E 103°55'0 0.1
2017-May-05 13:30N 01°16' E 103°55'1 2.9
2017-May-05 13:01N 01°16' E 103°56'3 5.3
2017-May-05 12:30N 01°15' E 103°59'611.8
2017-May-05 12:00N 01°16' E 104°05'  
Track history (hours):
 
Tides and Currents Weather Stations Pressure Air Temp Water Temp Dewpoint Dewpoint Depression Visibility Wind Speed Wind Dir Waves Ship Positions

Heydar Aliyev

Last reported at 2017-May-13 21:49 UTC. Time now 2017-Jun-22 14:10 UTC.
Position N 01°14' E 104°01'.
Warning: this ship's position is 39 days out of date.

Length 274 m; draft 16.6 m.

Type: Tanker. MMSI: 215213000.

Date/timePositionNaut miles runAvg speedWind from/ knotsBaromVisibWave heightAir tempDewpointWater temp
2017-May-13 21:49N 01°14' E 104°01'412.6
2017-May-13 21:29N 01°14' E 103°57'611.5
2017-May-13 21:00N 01°12' E 103°52'611.5
2017-May-13 20:30N 01°09' E 103°47'612.2
2017-May-13 19:59N 01°05' E 103°42'5 9.9
2017-May-13 19:30N 01°04' E 103°37'510.2
2017-May-13 19:00N 01°07' E 103°33'4 8.5
2017-May-13 18:30N 01°11' E 103°35'4 7.7
2017-May-13 18:00N 01°12' E 103°39'3 6.2
2017-May-13 17:30N 01°13' E 103°41'3 5.9
2017-May-13 17:00N 01°15' E 103°44'1 2.5
2017-May-13 16:30N 01°14' E 103°45'0 0.1
2017-May-13 16:00N 01°14' E 103°45'0 0.0
2017-May-13 15:17N 01°14' E 103°45'0 0.0
2017-May-13 14:56N 01°14' E 103°45'0 0.0
2017-May-13 14:14N 01°14' E 103°45'0 0.0
2017-May-13 13:29N 01°14' E 103°45'0 0.0
2017-May-13 12:53N 01°14' E 103°45'0 0.0
2017-May-13 12:26N 01°14' E 103°45'0 0.0
2017-May-13 11:53N 01°14' E 103°45'0 0.0
2017-May-13 11:29N 01°14' E 103°45'0 0.0
2017-May-13 10:53N 01°14' E 103°45'0 0.0
2017-May-13 10:29N 01°14' E 103°45'0 0.0
2017-May-13 09:59N 01°14' E 103°45'0 0.0
2017-May-13 09:23N 01°14' E 103°45'0 0.0
2017-May-13 08:05N 01°14' E 103°45'0 0.0
2017-May-13 07:53N 01°14' E 103°45'0 0.0
2017-May-13 07:29N 01°14' E 103°45'0 0.0
2017-May-13 06:56N 01°14' E 103°45'0 0.0
2017-May-13 06:11N 01°14' E 103°45'0 0.0
2017-May-13 05:59N 01°14' E 103°45'0 0.0
2017-May-13 05:29N 01°14' E 103°45'0 0.0
2017-May-13 04:41N 01°14' E 103°45'0 0.0
2017-May-13 04:29N 01°14' E 103°45'0 0.0
2017-May-13 03:53N 01°14' E 103°45'0 0.0
2017-May-13 02:56N 01°14' E 103°45'0 0.0
2017-May-13 02:11N 01°14' E 103°45'0 0.0
2017-May-13 01:56N 01°14' E 103°45'0 0.0
2017-May-13 01:26N 01°14' E 103°45'0 0.0
2017-May-13 00:50N 01°14' E 103°45'0 0.0
2017-May-13 00:29N 01°14' E 103°45'0 0.0
2017-May-12 23:47N 01°14' E 103°45'0 0.0
2017-May-12 23:23N 01°14' E 103°45'0 0.0
2017-May-12 22:59N 01°14' E 103°45'0 0.0
2017-May-12 22:17N 01°14' E 103°45'0 0.0
2017-May-12 21:53N 01°14' E 103°45'0 0.0
2017-May-12 21:29N 01°14' E 103°45'0 0.0
2017-May-12 20:50N 01°14' E 103°45'0 0.0
2017-May-12 20:29N 01°14' E 103°45'0 0.0
2017-May-12 19:53N 01°14' E 103°45'0 0.0
2017-May-12 19:29N 01°14' E 103°45'0 0.0
2017-May-12 18:53N 01°14' E 103°45'0 0.0
2017-May-12 18:29N 01°14' E 103°45'0 0.0
2017-May-12 17:53N 01°14' E 103°45'0 0.0
2017-May-12 17:29N 01°14' E 103°45'0 0.0
2017-May-12 16:56N 01°14' E 103°45'0 0.0
2017-May-12 16:29N 01°14' E 103°45'0 0.0
2017-May-12 15:56N 01°14' E 103°45'0 0.0
2017-May-12 15:20N 01°14' E 103°45'0 0.0
2017-May-12 14:56N 01°14' E 103°45'0 0.0
2017-May-12 14:29N 01°14' E 103°45'0 0.0
2017-May-12 13:29N 01°14' E 103°45'0 0.0
2017-May-12 12:53N 01°14' E 103°45'0 0.0
2017-May-12 12:29N 01°14' E 103°45'0 0.0
2017-May-12 11:50N 01°14' E 103°45'0 0.0
2017-May-12 11:26N 01°14' E 103°45'0 0.0
2017-May-12 10:56N 01°14' E 103°45'0 0.0
2017-May-12 10:29N 01°14' E 103°45'0 0.0
2017-May-12 09:53N 01°14' E 103°45'0 0.0
2017-May-12 09:23N 01°14' E 103°45'0 0.0
2017-May-12 08:56N 01°14' E 103°45'0 0.0
2017-May-12 08:26N 01°14' E 103°45'0 0.0
2017-May-12 07:56N 01°14' E 103°45'0 0.0
2017-May-12 07:23N 01°14' E 103°45'0 0.0
2017-May-12 06:56N 01°14' E 103°45'0 0.0
2017-May-12 06:29N 01°14' E 103°45'0 0.0
2017-May-12 05:56N 01°14' E 103°45'0 0.0
2017-May-12 05:23N 01°14' E 103°45'0 0.0
2017-May-12 04:59N 01°14' E 103°45'0 0.0
2017-May-12 04:29N 01°14' E 103°45'0 0.0
2017-May-12 03:56N 01°14' E 103°45'0 0.0
2017-May-12 03:23N 01°14' E 103°45'0 0.0
2017-May-12 02:59N 01°14' E 103°45'0 0.0
2017-May-12 02:29N 01°14' E 103°45'0 0.0
2017-May-12 01:56N 01°14' E 103°45'0 0.0
2017-May-12 01:29N 01°14' E 103°45'0 0.0
2017-May-12 00:53N 01°14' E 103°45'0 0.0
2017-May-12 00:29N 01°14' E 103°45'0 0.0
2017-May-11 23:56N 01°14' E 103°45'0 0.0
2017-May-11 23:29N 01°14' E 103°45'0 0.0
2017-May-11 22:53N 01°14' E 103°45'0 0.0
2017-May-11 22:29N 01°14' E 103°45'0 0.0
2017-May-11 21:56N 01°14' E 103°45'0 0.0
2017-May-11 21:26N 01°14' E 103°45'0 0.0
2017-May-11 20:59N 01°14' E 103°45'0 0.0
2017-May-11 20:29N 01°14' E 103°45'0 0.0
2017-May-11 19:56N 01°14' E 103°45'0 0.0
2017-May-11 19:26N 01°14' E 103°45'0 0.0
2017-May-11 18:56N 01°14' E 103°45'0 0.0
2017-May-11 18:29N 01°14' E 103°45'0 0.0
2017-May-11 17:56N 01°14' E 103°45'0 0.0
2017-May-11 17:29N 01°14' E 103°45'0 0.0
2017-May-11 16:59N 01°14' E 103°45'0 0.0
2017-May-11 16:29N 01°14' E 103°45'0 0.0
2017-May-11 15:59N 01°14' E 103°45'0 0.0
2017-May-11 15:29N 01°14' E 103°45'0 0.0
2017-May-11 14:59N 01°14' E 103°45'0 0.0
2017-May-11 14:29N 01°14' E 103°45'0 0.0
2017-May-11 13:29N 01°14' E 103°45'0 0.0
2017-May-11 12:59N 01°14' E 103°45'0 0.0
2017-May-11 12:29N 01°14' E 103°45'0 0.0
2017-May-11 11:59N 01°14' E 103°45'0 0.0
2017-May-11 11:26N 01°14' E 103°45'0 0.0
2017-May-11 10:56N 01°14' E 103°45'0 0.0
2017-May-11 10:26N 01°14' E 103°45'0 0.0
2017-May-11 09:56N 01°14' E 103°45'0 0.0
2017-May-11 09:29N 01°14' E 103°45'0 0.0
2017-May-11 08:56N 01°14' E 103°45'0 0.0
2017-May-11 08:29N 01°14' E 103°45'0 0.0
2017-May-11 07:56N 01°14' E 103°45'0 0.0
2017-May-11 07:29N 01°14' E 103°45'0 0.0
2017-May-11 06:59N 01°14' E 103°45'0 0.0
2017-May-11 06:29N 01°14' E 103°45'0 0.0
2017-May-11 05:56N 01°14' E 103°45'0 0.0
2017-May-11 05:26N 01°14' E 103°45'0 0.0
2017-May-11 04:53N 01°14' E 103°45'0 0.0
2017-May-11 04:29N 01°14' E 103°45'0 0.0
2017-May-11 03:56N 01°14' E 103°45'0 0.0
2017-May-11 03:29N 01°14' E 103°45'0 0.0
2017-May-11 02:59N 01°14' E 103°45'0 0.0
2017-May-11 02:17N 01°14' E 103°45'0 0.0
2017-May-11 01:59N 01°14' E 103°45'0 0.0
2017-May-11 01:29N 01°14' E 103°45'0 0.0
2017-May-11 00:56N 01°14' E 103°45'0 0.0
2017-May-11 00:29N 01°14' E 103°45'0 0.0
2017-May-10 23:59N 01°14' E 103°45'0 0.0
2017-May-10 23:29N 01°14' E 103°45'0 0.0
2017-May-10 22:59N 01°14' E 103°45'0 0.0
2017-May-10 22:29N 01°14' E 103°45'0 0.0
2017-May-10 21:59N 01°14' E 103°45'0 0.0
2017-May-10 21:29N 01°14' E 103°45'0 0.0
2017-May-10 20:59N 01°14' E 103°45'0 0.0
2017-May-10 20:23N 01°14' E 103°45'0 0.0
2017-May-10 19:59N 01°14' E 103°45'0 0.0
2017-May-10 19:29N 01°14' E 103°45'0 0.0
2017-May-10 18:59N 01°14' E 103°45'0 0.0
2017-May-10 18:29N 01°14' E 103°45'0 0.0
2017-May-10 17:59N 01°14' E 103°45'0 0.0
2017-May-10 17:29N 01°14' E 103°45'0 0.0
2017-May-10 16:59N 01°14' E 103°45'0 0.0
2017-May-10 16:23N 01°14' E 103°45'0 0.0
2017-May-10 15:56N 01°14' E 103°45'0 0.0
2017-May-10 15:29N 01°14' E 103°45'0 0.0
2017-May-10 14:59N 01°14' E 103°45'0 0.0
2017-May-10 13:56N 01°14' E 103°45'0 0.0
2017-May-10 13:29N 01°14' E 103°45'0 0.0
2017-May-10 10:29N 01°14' E 103°45'0 0.0
2017-May-10 09:56N 01°14' E 103°45'0 0.0
2017-May-10 09:29N 01°14' E 103°45'0 0.0
2017-May-10 08:53N 01°14' E 103°45'0 0.0
2017-May-10 08:29N 01°14' E 103°45'0 0.0
2017-May-10 07:59N 01°14' E 103°45'0 0.0
2017-May-10 07:29N 01°14' E 103°45'0 0.0
2017-May-10 06:59N 01°14' E 103°45'0 0.0
2017-May-10 06:29N 01°14' E 103°45'0 0.0
2017-May-10 05:56N 01°14' E 103°45'0 0.0
2017-May-10 05:29N 01°14' E 103°45'0 0.0
2017-May-10 04:26N 01°14' E 103°45'0 0.0
2017-May-10 03:59N 01°14' E 103°45'0 0.0
2017-May-10 03:26N 01°14' E 103°45'0 0.0
2017-May-10 02:56N 01°14' E 103°45'0 0.0
2017-May-10 02:29N 01°14' E 103°45'0 0.0
2017-May-10 01:44N 01°14' E 103°45'0 0.0
2017-May-10 01:14N 01°14' E 103°45'0 0.0
2017-May-09 19:50N 01°14' E 103°45'0 0.0
2017-May-09 19:23N 01°14' E 103°45'0 0.0
2017-May-09 18:56N 01°14' E 103°45'0 0.0
2017-May-09 18:23N 01°14' E 103°45'0 0.0
2017-May-09 17:56N 01°14' E 103°45'0 0.0
2017-May-09 17:29N 01°14' E 103°45'0 0.0
2017-May-09 16:59N 01°14' E 103°45'0 0.0
2017-May-09 16:23N 01°14' E 103°45'0 0.0
2017-May-09 15:47N 01°14' E 103°45'0 0.0
2017-May-09 15:29N 01°14' E 103°45'0 0.0
2017-May-09 14:59N 01°14' E 103°45'0 0.0
2017-May-09 12:53N 01°14' E 103°45'0 0.0
2017-May-09 12:26N 01°14' E 103°45'0 0.0
2017-May-09 11:50N 01°14' E 103°45'0 0.0
2017-May-09 11:23N 01°14' E 103°45'0 0.0
2017-May-09 10:23N 01°14' E 103°45'0 0.0
2017-May-09 07:41N 01°14' E 103°45'0 0.0
2017-May-09 06:35N 01°14' E 103°45'0 0.0
2017-May-09 06:30N 01°14' E 103°45'1 1.0
2017-May-09 06:00N 01°15' E 103°45'2 4.7
2017-May-09 05:30N 01°14' E 103°48'4 8.5
2017-May-09 05:00N 01°13' E 103°52'4 8.9
2017-May-09 04:30N 01°16' E 103°55'0 0.5
2017-May-09 03:46N 01°16' E 103°55'0 0.1
2017-May-09 03:25N 01°16' E 103°55'0 0.2
2017-May-09 02:58N 01°16' E 103°55'0 0.1
2017-May-09 02:22N 01°16' E 103°55'0 0.2
2017-May-09 01:58N 01°16' E 103°55'0 0.1
2017-May-09 01:25N 01°16' E 103°55'0 0.1
2017-May-09 00:55N 01°16' E 103°55'0 0.0
2017-May-09 00:28N 01°16' E 103°55'0 0.2
2017-May-08 23:58N 01°16' E 103°55'0 0.1
2017-May-08 23:28N 01°16' E 103°55'0 0.0
2017-May-08 22:55N 01°16' E 103°55'0 0.1
2017-May-08 22:28N 01°16' E 103°55'0 0.2
2017-May-08 21:52N 01°16' E 103°55'0 0.0
2017-May-08 21:28N 01°16' E 103°55'0 0.1
2017-May-08 20:58N 01°16' E 103°55'0 0.0
2017-May-08 20:28N 01°16' E 103°55'0 0.0
2017-May-08 19:55N 01°16' E 103°55'0 0.0
2017-May-08 19:28N 01°16' E 103°55'0 0.0
2017-May-08 18:58N 01°16' E 103°55'0 0.0
2017-May-08 18:28N 01°16' E 103°55'0 0.0
2017-May-08 17:58N 01°16' E 103°55'0 0.0
2017-May-08 17:25N 01°16' E 103°55'0 0.1
2017-May-08 16:58N 01°16' E 103°55'0 0.0
2017-May-08 16:28N 01°16' E 103°55'0 0.0
2017-May-08 15:52N 01°16' E 103°55'0 0.1
2017-May-08 15:19N 01°16' E 103°55'0 0.1
2017-May-08 14:43N 01°16' E 103°55'0 0.0
2017-May-08 14:28N 01°16' E 103°55'0 0.1
2017-May-08 13:28N 01°16' E 103°55'0 0.1
2017-May-08 12:58N 01°16' E 103°55'0 0.1
2017-May-08 12:25N 01°16' E 103°55'0 0.0
2017-May-08 11:58N 01°16' E 103°55'0 0.0
2017-May-08 11:25N 01°16' E 103°55'0 0.2
2017-May-08 10:58N 01°16' E 103°55'0 0.1
2017-May-08 10:28N 01°16' E 103°55'0 0.2
2017-May-08 09:58N 01°16' E 103°55'0 0.0
2017-May-08 09:28N 01°16' E 103°55'0 0.1
2017-May-08 08:58N 01°16' E 103°55'0 0.0
2017-May-08 08:25N 01°16' E 103°55'0 0.0
2017-May-08 07:58N 01°16' E 103°55'0 0.0
2017-May-08 07:25N 01°16' E 103°55'0 0.1
2017-May-08 06:58N 01°16' E 103°55'0 0.0
2017-May-08 06:19N 01°16' E 103°55'0 0.0
2017-May-08 05:58N 01°16' E 103°55'0 0.0
2017-May-08 05:28N 01°16' E 103°55'0 0.0
2017-May-08 04:58N 01°16' E 103°55'0 0.0
2017-May-08 04:28N 01°16' E 103°55'0 0.0
2017-May-08 03:52N 01°16' E 103°55'0 0.0
2017-May-08 03:25N 01°16' E 103°55'0 0.0
2017-May-08 02:58N 01°16' E 103°55'0 0.1
2017-May-08 02:28N 01°16' E 103°55'0 0.1
2017-May-08 01:55N 01°16' E 103°55'0 0.0
2017-May-08 01:25N 01°16' E 103°55'0 0.1
2017-May-08 00:55N 01°16' E 103°55'0 0.3
2017-May-08 00:28N 01°16' E 103°55'0 0.1
2017-May-07 23:58N 01°16' E 103°55'0 0.0
2017-May-07 23:28N 01°16' E 103°55'0 0.0
2017-May-07 22:58N 01°16' E 103°55'0 0.3
2017-May-07 22:25N 01°16' E 103°55'0 0.2
2017-May-07 21:52N 01°16' E 103°55'0 0.0
2017-May-07 21:25N 01°16' E 103°55'0 0.0
2017-May-07 20:55N 01°16' E 103°55'0 0.0
2017-May-07 20:22N 01°16' E 103°55'0 0.0
2017-May-07 19:55N 01°16' E 103°55'0 0.0
2017-May-07 19:25N 01°16' E 103°55'0 0.0
2017-May-07 18:58N 01°16' E 103°55'0 0.0
2017-May-07 18:10N 01°16' E 103°55'0 0.0
2017-May-07 17:55N 01°16' E 103°55'0 0.0
2017-May-07 17:13N 01°16' E 103°55'0 0.0
2017-May-07 16:55N 01°16' E 103°55'0 0.1
2017-May-07 16:28N 01°16' E 103°55'0 0.1
2017-May-07 15:58N 01°16' E 103°55'0 0.1
2017-May-07 15:16N 01°16' E 103°55'0 0.1
2017-May-07 14:19N 01°16' E 103°55'0 0.1
2017-May-07 13:25N 01°16' E 103°55'0 0.1
2017-May-07 12:58N 01°16' E 103°55'0 0.0
2017-May-07 12:25N 01°16' E 103°55'0 0.0
2017-May-07 11:52N 01°16' E 103°55'0 0.1
2017-May-07 11:22N 01°16' E 103°55'0 0.1
2017-May-07 10:58N 01°16' E 103°55'0 0.2
2017-May-07 10:25N 01°16' E 103°55'0 0.0
2017-May-07 09:58N 01°16' E 103°55'0 0.1
2017-May-07 09:28N 01°16' E 103°55'0 0.1
2017-May-07 08:58N 01°16' E 103°55'0 0.1
2017-May-07 08:28N 01°16' E 103°55'0 0.1
2017-May-07 07:58N 01°16' E 103°55'0 0.0
2017-May-07 07:28N 01°16' E 103°55'0 0.0
2017-May-07 06:58N 01°16' E 103°55'0 0.0
2017-May-07 06:28N 01°16' E 103°55'0 0.0
2017-May-07 05:58N 01°16' E 103°55'0 0.0
2017-May-07 05:25N 01°16' E 103°55'0 0.0
2017-May-07 04:55N 01°16' E 103°55'0 0.0
2017-May-07 04:25N 01°16' E 103°55'0 0.0
2017-May-07 03:58N 01°16' E 103°55'0 0.0
2017-May-07 03:25N 01°16' E 103°55'0 0.0
2017-May-07 02:58N 01°16' E 103°55'0 0.3
2017-May-07 02:28N 01°16' E 103°55'0 0.3
2017-May-07 01:58N 01°16' E 103°55'0 0.1
2017-May-07 01:28N 01°16' E 103°55'0 0.1
2017-May-07 00:55N 01°16' E 103°55'0 0.0
2017-May-07 00:19N 01°16' E 103°55'0 0.1
2017-May-06 23:46N 01°16' E 103°55'0 0.1
2017-May-06 22:43N 01°16' E 103°55'0 0.0
2017-May-06 22:28N 01°16' E 103°55'0 0.0
2017-May-06 21:52N 01°16' E 103°55'0 0.3
2017-May-06 21:28N 01°16' E 103°55'0 0.3
2017-May-06 20:58N 01°16' E 103°55'0 0.1
2017-May-06 20:28N 01°16' E 103°55'0 0.0
2017-May-06 19:58N 01°16' E 103°55'0 0.0
2017-May-06 19:28N 01°16' E 103°55'0 0.0
2017-May-06 18:55N 01°16' E 103°55'0 0.0
2017-May-06 18:28N 01°16' E 103°55'0 0.1
2017-May-06 17:58N 01°16' E 103°55'0 0.1
2017-May-06 16:46N 01°16' E 103°55'0 0.2
2017-May-06 16:28N 01°16' E 103°55'0 0.1
2017-May-06 15:58N 01°16' E 103°55'0 0.1
2017-May-06 15:28N 01°16' E 103°55'0 0.0
2017-May-06 14:52N 01°16' E 103°55'0 0.0
2017-May-06 14:28N 01°16' E 103°55'0 0.0
2017-May-06 13:28N 01°16' E 103°55'0 0.0
2017-May-06 12:58N 01°16' E 103°55'0 0.0
2017-May-06 12:28N 01°16' E 103°55'0 0.0
2017-May-06 11:58N 01°16' E 103°55'0 0.1
2017-May-06 11:28N 01°16' E 103°55'0 0.2
2017-May-06 10:58N 01°16' E 103°55'0 0.1
2017-May-06 10:28N 01°16' E 103°55'0 0.0
2017-May-06 09:58N 01°16' E 103°55'0 0.0
2017-May-06 09:22N 01°16' E 103°55'0 0.0
2017-May-06 08:58N 01°16' E 103°55'0 0.0
2017-May-06 08:28N 01°16' E 103°55'0 0.1
2017-May-06 07:58N 01°16' E 103°55'0 0.0
2017-May-06 07:13N 01°16' E 103°55'0 0.0
2017-May-06 06:58N 01°16' E 103°55'0 0.0
2017-May-06 06:28N 01°16' E 103°55'0 0.1
2017-May-06 05:58N 01°16' E 103°55'0 0.0
2017-May-06 05:22N 01°16' E 103°55'0 0.0
2017-May-06 04:58N 01°16' E 103°55'0 0.0
2017-May-06 04:25N 01°16' E 103°55'0 0.0
2017-May-06 03:58N 01°16' E 103°55'0 0.1
2017-May-06 03:28N 01°16' E 103°55'0 0.1
2017-May-06 02:58N 01°16' E 103°55'0 0.0
2017-May-06 02:28N 01°16' E 103°55'0 0.0
2017-May-06 01:58N 01°16' E 103°55'0 0.1
2017-May-06 01:28N 01°16' E 103°55'0 0.1
2017-May-06 00:58N 01°16' E 103°55'0 0.0
2017-May-06 00:25N 01°16' E 103°55'0 0.4
2017-May-05 23:52N 01°16' E 103°55'0 0.3
2017-May-05 23:25N 01°16' E 103°55'0 0.1
2017-May-05 22:55N 01°16' E 103°55'0 0.1
2017-May-05 22:19N 01°16' E 103°55'0 0.1
2017-May-05 21:58N 01°16' E 103°55'0 0.0
2017-May-05 21:28N 01°16' E 103°55'0 0.0
2017-May-05 20:58N 01°16' E 103°55'0 0.0
2017-May-05 20:22N 01°16' E 103°55'0 0.0
2017-May-05 19:52N 01°16' E 103°55'0 0.0
2017-May-05 19:28N 01°16' E 103°55'0 0.1
2017-May-05 18:58N 01°16' E 103°55'0 0.1
2017-May-05 18:28N 01°16' E 103°55'0 0.0
2017-May-05 17:58N 01°16' E 103°55'0 0.1
2017-May-05 17:28N 01°16' E 103°55'0 0.0
2017-May-05 16:52N 01°16' E 103°55'0 0.0
2017-May-05 16:28N 01°16' E 103°55'0 0.0
2017-May-05 15:58N 01°16' E 103°55'0 0.0
2017-May-05 15:19N 01°16' E 103°55'0 0.0
2017-May-05 14:58N 01°16' E 103°55'0 0.1
2017-May-05 14:28N 01°16' E 103°55'0 0.1
2017-May-05 13:30N 01°16' E 103°55'1 2.9
2017-May-05 13:01N 01°16' E 103°56'3 5.3
2017-May-05 12:30N 01°15' E 103°59'611.8
2017-May-05 12:00N 01°16' E 104°05'  

Dump ship's entire track history